2004 OTTO (2004331N28320)


On this page: IBTrACS data - Map and Plots - Positions - Intensities - Original source data

Summary

Start Nov 26
End Dec 5
Basin NA
LMI 45 kt
Sources hurdat_atl
atcf
In WMO? Yes
Previous storm 2004 MERBOK (WP)
Previous in basin 2004 NICOLE (NA)
Concurrent storms 2004 MUIFA (WP)
2005 BENTO (SI)
2004 OTTO (NA)
2004 MISSING (NI)
2004 NANMADOL (WP)
2005 MISSING (SI)
Next in basin Missing
Next storm 2004 MISSING (NI)

top of page IBTrACS Data: File Access

top of page HURSAT Data: File Access

Image of storm

top of page Plots:

Map of storm track will not appear if FTP is down
Time series of cyclone Maximum Sustained Wind will not appear if FTP is down
Time series of cyclone Minimum Central Pressure will not appear if FTP is down

top of page Track Data:Position

hurdat_atl atcf
Date Lat Lon Lat Lon
2004-11-26 00:00:00 28.0 -40.0 28.0 -40.0
2004-11-26 06:00:00 27.3 -41.0 27.3 -41.0
2004-11-26 12:00:00 26.5 -41.9 26.5 -41.9
2004-11-26 18:00:00 26.8 -42.5 26.8 -42.5
2004-11-27 00:00:00 26.8 -43.2 26.8 -43.2
2004-11-27 06:00:00 26.7 -43.8 26.7 -43.8
2004-11-27 12:00:00 26.4 -44.3 26.4 -44.3
2004-11-27 18:00:00 26.2 -44.4 26.2 -44.4
2004-11-28 00:00:00 26.3 -44.1 26.3 -44.1
2004-11-28 06:00:00 27.4 -43.9 27.4 -43.9
2004-11-28 12:00:00 28.2 -44.0 28.2 -44.0
2004-11-28 18:00:00 28.7 -45.1 28.7 -45.1
2004-11-29 00:00:00 28.8 -46.5 28.8 -46.5
2004-11-29 06:00:00 29.0 -47.8 29.0 -47.8
2004-11-29 12:00:00 29.6 -47.9 29.6 -47.9
2004-11-29 18:00:00 30.2 -48.8 30.2 -48.8
2004-11-30 00:00:00 30.7 -49.7 30.7 -49.7
2004-11-30 06:00:00 30.9 -50.5 30.9 -50.5
2004-11-30 12:00:00 31.3 -51.0 31.3 -51.0
2004-11-30 18:00:00 31.7 -51.0 31.7 -51.0
2004-12-01 00:00:00 31.8 -50.9 31.8 -50.9
2004-12-01 06:00:00 31.9 -50.8 31.9 -50.8
2004-12-01 12:00:00 31.6 -50.4 31.6 -50.4
2004-12-01 18:00:00 31.0 -50.1 31.0 -50.1
2004-12-02 00:00:00 30.5 -49.9 30.5 -49.9
hurdat_atl atcf
2004-12-02 06:00:00 29.9 -50.1 29.9 -50.1
2004-12-02 12:00:00 29.1 -50.4 29.1 -50.4
2004-12-02 18:00:00 28.5 -50.1 28.5 -50.1
2004-12-03 00:00:00 27.9 -50.1 27.9 -50.1
2004-12-03 06:00:00 27.2 -50.2 27.2 -50.2
2004-12-03 12:00:00 26.5 -50.3 26.5 -50.3
2004-12-03 18:00:00 26.2 -50.6 26.2 -50.6
2004-12-04 00:00:00 25.8 -50.2 25.8 -50.2
2004-12-04 06:00:00 25.4 -50.1 25.4 -50.1
2004-12-04 12:00:00 25.0 -50.4 25.0 -50.4
2004-12-04 18:00:00 25.1 -50.9 25.1 -50.9
2004-12-05 00:00:00 25.5 -51.1 25.5 -51.1
2004-12-05 06:00:00 25.9 -51.1 25.9 -51.1
2004-12-05 12:00:00 26.1 -51.4 26.1 -51.4

top of pageTrack Data:Intensity

hurdat_atl atcf
Date Wind Pres Wind Pres
2004-11-26 00:00:00 30. 1009. 30. 1009.
2004-11-26 06:00:00 35. 1006. 35. 1006.
2004-11-26 12:00:00 35. 1002. 35. 1002.
2004-11-26 18:00:00 35. 1000. 35. 1000.
2004-11-27 00:00:00 35. 1000. 35. 1000.
2004-11-27 06:00:00 35. 1000. 35. 1000.
2004-11-27 12:00:00 35. 1000. 35. 1000.
2004-11-27 18:00:00 35. 1000. 35. 1000.
2004-11-28 00:00:00 35. 1000. 35. 1000.
2004-11-28 06:00:00 35. 1000. 35. 1000.
2004-11-28 12:00:00 35. 1000. 35. 1000.
2004-11-28 18:00:00 35. 999. 35. 999.
2004-11-29 00:00:00 35. 998. 35. 998.
2004-11-29 06:00:00 40. 998. 40. 998.
2004-11-29 12:00:00 40. 998. 40. 998.
2004-11-29 18:00:00 45. 998. 45. 998.
2004-11-30 00:00:00 45. 997. 45. 997.
2004-11-30 06:00:00 45. 997. 45. 997.
2004-11-30 12:00:00 40. 997. 40. 997.
2004-11-30 18:00:00 40. 997. 40. 997.
2004-12-01 00:00:00 40. 997. 40. 997.
2004-12-01 06:00:00 40. 997. 40. 997.
2004-12-01 12:00:00 40. 997. 40. 997.
2004-12-01 18:00:00 35. 997. 35. 997.
2004-12-02 00:00:00 35. 997. 35. 997.
hurdat_atl atcf
2004-12-02 06:00:00 35. 996. 35. 996.
2004-12-02 12:00:00 30. 995. 30. 995.
2004-12-02 18:00:00 30. 996. 30. 996.
2004-12-03 00:00:00 30. 997. 30. 997.
2004-12-03 06:00:00 30. 998. 30. 998.
2004-12-03 12:00:00 30. 1000. 30. 1000.
2004-12-03 18:00:00 25. 1002. 25. 1002.
2004-12-04 00:00:00 25. 1005. 25. 1005.
2004-12-04 06:00:00 25. 1008. 25. 1008.
2004-12-04 12:00:00 25. 1010. 25. 1010.
2004-12-04 18:00:00 25. 1011. 25. 1011.
2004-12-05 00:00:00 20. 1012. 20. 1012.
2004-12-05 06:00:00 20. 1013. 20. 1013.
2004-12-05 12:00:00 20. 1014. 20. 1014.

top of page Links to source data

Source Source file Format
hurdat_atl tracks1851to2011.txt:1349:OTTO HURDAT
atcf bal162004.dat ATCF